Time;durP1;ratioP1;P1;durP2;ratioP2;P2;SDS_P1;SDS_P2;PMS_P1;PMS_P2;Temp;Humidity;BMP_temperature;BMP_pressure;BME280_temperature;BME280_humidity;BME280_pressure;Samples;Min_cycle;Max_cycle;Signal;HPM_P1;HPM_P2
2022/01/04 00:01:47;;;;;;;72.60;26.50;;;;;;;7.26;91.96;99494.05;109176;1264;57146;-82
2022/01/04 00:13:24;;;;;;;72.80;25.10;;;;;;;7.21;91.98;99472.64;109059;1260;144130;-82
2022/01/04 00:15:53;;;;;;;69.90;28.30;;;;;;;7.21;91.76;99464.96;109171;1263;62663;-82
2022/01/04 00:18:20;;;;;;;65.60;25.50;;;;;;;7.20;91.82;99470.11;109188;1264;60502;-84
2022/01/04 00:20:50;;;;;;;64.10;24.30;;;;;;;7.19;91.70;99461.73;109175;1263;73172;-83
2022/01/04 00:23:18;;;;;;;76.50;28.00;;;;;;;7.17;91.46;99463.82;109651;1257;71283;-81
2022/01/04 00:25:45;;;;;;;82.20;27.70;;;;;;;7.17;91.52;99458.59;109628;1257;73055;-82
2022/01/04 00:28:12;;;;;;;73.70;28.90;;;;;;;7.16;91.19;99450.21;109619;1257;61147;-81
2022/01/04 00:30:40;;;;;;;76.30;24.30;;;;;;;7.14;91.54;99447.27;109599;1257;60507;-82
2022/01/04 00:33:09;;;;;;;74.20;26.50;;;;;;;7.13;91.40;99441.95;109628;1257;73983;-82
2022/01/04 00:35:36;;;;;;;73.40;25.70;;;;;;;7.12;91.51;99437.58;109398;1257;73367;-82
2022/01/04 00:38:02;;;;;;;69.20;24.30;;;;;;;7.11;91.66;99440.34;109595;1257;73841;-82
2022/01/04 00:40:29;;;;;;;81.80;26.70;;;;;;;7.08;91.53;99435.39;109635;1257;61967;-85
2022/01/04 00:42:58;;;;;;;84.70;28.00;;;;;;;7.08;91.82;99423.10;109624;1256;60649;-82
2022/01/04 00:45:32;;;;;;;80.40;27.80;;;;;;;7.10;92.01;99425.12;109616;1257;74298;-84
2022/01/04 00:50:28;;;;;;;77.80;24.60;;;;;;;7.13;92.31;99411.11;109386;1257;72986;-82
2022/01/04 00:52:57;;;;;;;70.00;27.80;;;;;;;7.15;92.10;99405.89;109609;1256;62112;-82
2022/01/04 00:55:24;;;;;;;71.50;25.40;;;;;;;7.19;91.82;99406.14;109591;1257;60486;-83
2022/01/04 00:57:51;;;;;;;70.30;28.80;;;;;;;7.20;91.87;99401.11;109331;1260;74280;-83
2022/01/04 01:00:21;;;;;;;79.00;26.00;;;;;;;7.22;91.51;99398.42;109652;1257;72260;-83
2022/01/04 01:02:48;;;;;;;80.20;26.20;;;;;;;7.25;91.46;99397.98;109410;1257;72944;-82
2022/01/04 01:05:16;;;;;;;78.30;27.20;;;;;;;7.28;91.45;99388.52;109381;1257;61856;-83
2022/01/04 01:07:43;;;;;;;74.80;25.90;;;;;;;7.31;91.20;99388.68;109633;1257;60657;-82
2022/01/04 01:12:42;;;;;;;67.90;24.50;;;;;;;7.34;90.93;99376.63;109646;1257;70898;-81
2022/01/04 01:15:09;;;;;;;72.80;24.00;;;;;;;7.35;90.71;99370.23;109431;1257;72932;-81
2022/01/04 01:17:36;;;;;;;72.60;25.00;;;;;;;7.37;91.00;99367.10;109339;1257;63612;-83
2022/01/04 01:20:05;;;;;;;78.90;24.90;;;;;;;7.36;90.88;99362.59;109598;1257;60487;-81
2022/01/04 01:22:32;;;;;;;73.90;23.80;;;;;;;7.37;90.78;99359.84;109641;1257;73375;-82
2022/01/04 01:33:52;;;;;;;74.40;24.00;;;;;;;7.36;90.32;99340.56;109648;1254;144130;-81
2022/01/04 01:36:21;;;;;;;76.40;26.80;;;;;;;7.33;90.22;99339.14;109640;1256;74268;-82
2022/01/04 01:56:23;;;;;;;63.30;24.10;;;;;;;7.35;89.99;99298.42;109908;1254;72918;-82
2022/01/04 01:58:50;;;;;;;78.40;27.50;;;;;;;7.36;89.85;99299.81;110011;1254;63452;-82
2022/01/04 02:04:16;;;;;;;;;;;;;;;;;;;;;
2022/01/04 02:18:32;;;;;;;60.30;22.50;;;;;;;7.33;90.32;99283.06;109648;1254;145484;31
2022/01/04 02:23:29;;;;;;;75.70;25.80;;;;;;;7.31;90.68;99270.42;109795;1253;73862;-80
2022/01/04 02:25:56;;;;;;;56.10;19.20;;;;;;;7.32;90.33;99272.17;109778;1253;63093;-81
2022/01/04 02:28:41;;;;;;;75.30;26.20;;;;;;;7.32;90.37;99271.04;109812;1254;60569;31
2022/01/04 02:31:08;;;;;;;76.50;26.00;;;;;;;7.34;90.31;99262.37;109780;1253;73358;-80
2022/01/04 02:33:54;;;;;;;69.90;23.90;;;;;;;7.34;90.19;99259.70;109842;1254;74044;31
2022/01/04 02:36:21;;;;;;;73.90;24.60;;;;;;;7.32;90.37;99253.59;109349;1256;142549;-81
2022/01/04 02:38:48;;;;;;;72.10;25.10;;;;;;;7.32;90.36;99250.80;109643;1256;57468;-81
2022/01/04 02:41:15;;;;;;;63.10;25.10;;;;;;;7.34;90.22;99241.98;109676;1256;60519;-84
2022/01/04 02:43:43;;;;;;;69.00;24.70;;;;;;;7.34;90.14;99242.53;109461;1257;73863;-82
2022/01/04 02:46:10;;;;;;;80.10;26.80;;;;;;;7.33;90.42;99235.37;109438;1257;57314;-84
2022/01/04 02:48:44;;;;;;;67.10;22.70;;;;;;;7.32;90.31;99238.20;109354;1258;74176;-84
2022/01/04 02:51:11;;;;;;;73.10;25.30;;;;;;;7.30;90.40;99238.35;109642;1257;63268;-82
2022/01/04 02:53:38;;;;;;;62.00;21.70;;;;;;;7.29;90.26;99235.02;109695;1255;59546;-82
2022/01/04 02:56:05;;;;;;;68.80;22.30;;;;;;;7.27;90.36;99230.65;109419;1257;73357;-84
2022/01/04 03:00:57;;;;;;;62.70;24.00;;;;;;;7.26;90.71;99220.33;109784;1254;57515;-80
2022/01/04 03:03:33;;;;;;;70.00;22.60;;;;;;;7.26;90.92;99222.56;109838;1254;57299;-80
2022/01/04 03:06:04;;;;;;;54.10;21.70;;;;;;;7.26;90.82;99216.65;109668;1255;60561;31
2022/01/04 03:08:35;;;;;;;59.20;22.10;;;;;;;7.25;91.23;99214.38;109807;1254;73336;-82
2022/01/04 03:11:02;;;;;;;56.80;20.60;;;;;;;7.25;91.30;99214.05;109545;1255;72299;-81
2022/01/04 03:13:33;;;;;;;55.10;20.00;;;;;;;7.26;91.41;99208.98;109511;1255;72537;-79
2022/01/04 03:15:59;;;;;;;54.20;21.10;;;;;;;7.27;91.20;99207.73;109745;1255;63136;-82
2022/01/04 03:18:26;;;;;;;52.90;20.20;;;;;;;7.28;91.47;99203.55;109860;1254;59914;-81
2022/01/04 03:20:53;;;;;;;49.70;19.30;;;;;;;7.28;91.60;99194.86;109758;1255;73174;-82
2022/01/04 03:26:10;;;;;;;;;;;;;;;7.24;91.83;99188.14;109707;1254;71428;31
2022/01/04 03:28:40;;;;;;;59.60;23.10;;;;;;;7.21;91.67;99184.14;109512;1256;61804;-83
2022/01/04 03:31:07;;;;;;;61.00;20.20;;;;;;;7.20;91.89;99180.11;109304;1257;62457;-81
2022/01/04 03:33:35;;;;;;;56.00;19.30;;;;;;;7.19;92.38;99174.91;109502;1257;73182;-81
2022/01/04 03:38:55;;;;;;;51.80;21.10;;;;;;;7.18;92.33;99167.52;109732;1255;73522;-79
2022/01/04 03:41:46;;;;;;;61.00;20.70;;;;;;;7.18;92.70;99161.87;109492;1256;62681;-79
2022/01/04 03:46:51;;;;;;;45.20;17.80;;;;;;;7.18;92.44;99148.69;109922;1254;74072;-81
2022/01/04 03:49:21;;;;;;;49.40;18.20;;;;;;;7.17;92.85;99145.11;109396;1254;66656;-82
2022/01/04 03:54:14;;;;;;;40.10;17.40;;;;;;;7.17;92.81;99141.42;109953;1254;58186;-81
2022/01/04 03:57:34;;;;;;;48.00;18.70;;;;;;;7.20;92.93;99137.02;104714;1296;600107;31
2022/01/04 04:05:08;;;;;;;46.70;18.70;;;;;;;7.12;93.12;99122.16;106814;1277;72572;31
2022/01/04 04:07:39;;;;;;;39.50;17.60;;;;;;;7.11;92.60;99111.55;106825;1278;71514;-80
2022/01/04 04:10:21;;;;;;;45.50;17.10;;;;;;;7.11;92.89;99101.22;106774;1286;428738;-81
2022/01/04 04:12:48;;;;;;;38.90;16.80;;;;;;;7.12;92.69;99099.89;107104;1287;63442;-83
2022/01/04 04:15:15;;;;;;;37.30;15.30;;;;;;;7.12;92.71;99095.60;107187;1286;61649;-81
2022/01/04 04:17:47;;;;;;;37.60;14.40;;;;;;;7.13;92.59;99098.30;107248;1286;72363;-81
2022/01/04 04:20:17;;;;;;;40.00;15.80;;;;;;;7.13;92.77;99087.40;107143;1288;70473;-81
2022/01/04 04:22:44;;;;;;;38.20;14.60;;;;;;;7.12;92.52;99080.86;107189;1287;74031;-81
2022/01/04 04:25:10;;;;;;;43.20;15.50;;;;;;;7.11;92.63;99076.20;107184;1287;62261;-81
2022/01/04 04:27:40;;;;;;;36.80;14.90;;;;;;;7.12;92.61;99069.63;107306;1286;61651;-82
2022/01/04 04:35:57;;;;;;;39.80;15.30;;;;;;;7.14;92.07;99060.84;107978;1271;72517;-80
2022/01/04 04:41:27;;;;;;;33.20;14.10;;;;;;;7.14;92.15;99052.48;108204;1271;59147;31
2022/01/04 04:54:52;;;;;;;;;;;;;;;;;;;;;
2022/01/04 05:00:15;;;;;;;32.80;13.60;;;;;;;7.11;91.86;99029.50;107561;1273;143642;-82
2022/01/04 05:02:43;;;;;;;29.00;13.60;;;;;;;7.11;91.84;99022.77;107333;1283;73100;-82
2022/01/04 05:05:10;;;;;;;34.10;14.40;;;;;;;7.12;91.83;99020.42;107334;1283;62437;-82
2022/01/04 05:07:36;;;;;;;32.10;14.10;;;;;;;7.10;91.81;99018.34;107592;1283;61600;-82
2022/01/04 05:10:06;;;;;;;26.70;13.40;;;;;;;7.09;91.92;99009.73;107619;1283;73217;-81
2022/01/04 05:12:32;;;;;;;27.00;11.40;;;;;;;7.07;91.69;99005.89;107611;1281;71534;-81
2022/01/04 05:21:09;;;;;;;30.10;12.20;;;;;;;7.06;91.68;98991.26;107840;1274;150327;-80
2022/01/04 05:23:36;;;;;;;34.40;12.90;;;;;;;7.06;91.79;98982.65;107508;1273;75746;-80
2022/01/04 05:28:33;;;;;;;29.90;12.80;;;;;;;7.08;91.44;98976.38;107386;1274;71345;-81
2022/01/04 05:31:05;;;;;;;29.50;13.60;;;;;;;7.08;91.08;98976.41;107721;1273;64819;31
2022/01/04 05:33:32;;;;;;;31.90;13.60;;;;;;;7.09;91.36;98971.33;107103;1274;61433;-81
2022/01/04 05:36:00;;;;;;;34.40;13.90;;;;;;;7.10;91.26;98964.05;107643;1276;73480;-80
2022/01/04 05:38:27;;;;;;;32.90;12.30;;;;;;;7.08;91.09;98960.96;107178;1275;72380;-80
2022/01/04 05:43:53;;;;;;;34.80;11.30;;;;;;;7.09;90.97;98961.83;107880;1273;62300;31
2022/01/04 05:52:19;;;;;;;35.40;14.20;;;;;;;7.10;90.46;98950.11;107669;1273;66606;-80
2022/01/04 05:54:48;;;;;;;35.60;14.40;;;;;;;7.11;90.18;98951.90;107676;1274;143849;-83
2022/01/04 05:57:17;;;;;;;35.50;13.70;;;;;;;7.12;90.23;98944.93;107455;1285;63313;-84
2022/01/04 05:59:44;;;;;;;38.30;15.50;;;;;;;7.13;90.36;98934.10;107146;1287;60510;-83
2022/01/04 06:02:10;;;;;;;31.70;13.20;;;;;;;7.14;89.97;98935.00;107182;1286;74731;-82
2022/01/04 06:04:37;;;;;;;38.80;14.50;;;;;;;7.14;90.26;98939.22;107165;1287;72745;-83
2022/01/04 06:07:03;;;;;;;40.10;12.90;;;;;;;7.13;90.53;98939.45;107471;1285;57575;-82
2022/01/04 06:09:40;;;;;;;32.70;12.90;;;;;;;7.11;90.42;98937.86;107312;1286;62385;-81
2022/01/04 06:20:23;;;;;;;39.90;14.00;;;;;;;7.07;90.54;98939.70;107244;1273;73404;-82
2022/01/04 06:22:51;;;;;;;35.70;10.20;;;;;;;7.02;90.67;98934.08;107501;1273;64697;-82
2022/01/04 06:25:20;;;;;;;38.60;15.30;;;;;;;7.05;90.50;98936.48;107383;1273;58915;-80
2022/01/04 06:28:00;;;;;;;;;;;;;;;;;;;;;
2022/01/04 06:30:21;;;;;;;36.80;15.50;;;;;;;7.05;90.39;98938.63;107300;1273;66636;-81
2022/01/04 06:37:47;;;;;;;34.80;15.10;;;;;;;7.05;90.12;98933.36;107509;1273;60654;-80
2022/01/04 06:40:17;;;;;;;32.00;12.70;;;;;;;7.06;90.45;98922.66;107321;1275;77240;-82
2022/01/04 06:42:48;;;;;;;46.20;15.70;;;;;;;7.07;90.52;98915.25;107038;1275;74035;-79
2022/01/04 06:45:15;;;;;;;32.20;12.50;;;;;;;7.06;90.35;98908.15;107303;1273;73414;-81
2022/01/04 06:47:44;;;;;;;40.20;15.30;;;;;;;7.05;90.49;98906.11;107389;1274;65669;-81
2022/01/04 06:50:22;;;;;;;;;;;;;;;;;;;;;
2022/01/04 06:52:52;;;;;;;38.30;13.50;;;;;;;7.07;90.21;98912.94;107427;1275;73403;-78
2022/01/04 07:00:13;;;;;;;28.70;12.50;;;;;;;7.01;90.21;98890.84;107342;1276;62287;-78
2022/01/04 07:03:03;;;;;;;23.90;11.50;;;;;;;7.03;90.35;98886.39;104061;1299;599565;-78
2022/01/04 07:08:00;;;;;;;32.90;14.90;;;;;;;6.97;90.53;98902.38;107296;1274;60609;-80
2022/01/04 07:10:30;;;;;;;31.30;13.80;;;;;;;6.93;90.68;98899.48;107270;1274;74728;-77
2022/01/04 07:12:57;;;;;;;35.30;15.70;;;;;;;6.93;90.95;98887.56;107455;1286;71398;-79
2022/01/04 07:15:24;;;;;;;33.90;14.70;;;;;;;6.93;91.01;98887.73;107498;1285;72784;-79
2022/01/04 07:17:51;;;;;;;38.80;14.40;;;;;;;6.95;91.24;98890.73;107475;1284;59938;-78
2022/01/04 07:20:17;;;;;;;41.10;17.80;;;;;;;6.96;91.30;98891.15;107663;1283;57669;-78
2022/01/04 07:22:44;;;;;;;46.70;19.50;;;;;;;6.95;91.52;98890.13;107695;1283;73572;-78
2022/01/04 07:25:11;;;;;;;36.30;14.90;;;;;;;6.97;91.57;98881.50;107610;1283;71341;-78
2022/01/04 07:27:47;;;;;;;48.90;17.20;;;;;;;6.99;91.22;98890.09;107663;1283;72973;-78
2022/01/04 07:30:13;;;;;;;52.10;22.30;;;;;;;6.98;91.06;98890.86;107580;1284;63357;-79
2022/01/04 07:32:40;;;;;;;43.00;18.00;;;;;;;6.98;91.13;98883.85;107623;1284;60873;-79
2022/01/04 07:35:10;;;;;;;67.50;24.90;;;;;;;7.00;91.01;98875.23;107640;1283;74589;-78
2022/01/04 07:37:37;;;;;;;61.10;25.80;;;;;;;7.00;90.95;98880.14;107474;1286;70484;-77
2022/01/04 07:40:05;;;;;;;42.40;17.30;;;;;;;6.99;91.10;98873.05;107674;1283;72962;-78
2022/01/04 07:42:32;;;;;;;45.90;15.50;;;;;;;7.00;90.93;98876.45;107567;1284;62278;-77
2022/01/04 07:44:59;;;;;;;115.80;46.60;;;;;;;7.01;90.87;98880.08;107330;1286;60570;-77
2022/01/04 07:47:31;;;;;;;43.00;17.10;;;;;;;7.02;90.93;98884.04;107673;1283;73676;-77
2022/01/04 07:49:58;;;;;;;69.20;24.30;;;;;;;7.02;90.77;98886.21;107638;1283;72879;-78
2022/01/04 07:52:24;;;;;;;40.60;16.50;;;;;;;7.00;90.88;98886.94;107439;1286;72965;-77
2022/01/04 07:54:51;;;;;;;49.50;19.90;;;;;;;7.00;90.90;98881.15;107598;1282;61372;-78
2022/01/04 07:57:18;;;;;;;72.20;26.90;;;;;;;7.00;91.00;98883.25;107654;1283;61586;-77
2022/01/04 07:59:45;;;;;;;121.90;42.00;;;;;;;7.00;91.09;98887.11;107573;1283;73238;-76
2022/01/04 08:02:11;;;;;;;45.50;17.80;;;;;;;7.01;91.11;98877.77;107556;1284;72517;-77
2022/01/04 08:04:41;;;;;;;50.70;16.80;;;;;;;7.02;90.99;98878.88;107620;1283;74305;-76
2022/01/04 08:07:08;;;;;;;41.70;17.00;;;;;;;7.03;90.92;98879.00;108359;1277;63658;-76
2022/01/04 08:09:34;;;;;;;40.80;18.80;;;;;;;7.03;90.96;98875.60;108333;1277;60583;-76
2022/01/04 08:12:03;;;;;;;47.60;20.60;;;;;;;7.05;90.79;98873.78;108447;1276;74334;-77
2022/01/04 08:14:31;;;;;;;81.50;29.80;;;;;;;7.08;90.62;98874.23;108227;1277;71533;-76
2022/01/04 08:17:01;;;;;;;70.90;28.20;;;;;;;7.11;90.41;98874.65;108414;1276;72947;-76
2022/01/04 08:19:39;;;;;;;41.80;16.50;;;;;;;7.13;90.28;98866.80;108349;1276;61199;-77
2022/01/04 08:22:06;;;;;;;61.50;22.70;;;;;;;7.17;90.27;98860.73;108379;1277;62125;-77
2022/01/04 08:24:33;;;;;;;46.80;17.30;;;;;;;7.17;90.08;98850.30;108360;1277;74474;-76
2022/01/04 08:27:00;;;;;;;51.90;20.30;;;;;;;7.18;90.09;98854.22;108275;1277;71453;-78
2022/01/04 08:29:29;;;;;;;156.10;63.20;;;;;;;7.19;89.87;98857.27;108170;1277;72905;-77
2022/01/04 08:32:04;;;;;;;59.40;22.50;;;;;;;7.19;89.75;98856.83;108282;1276;62426;-76
2022/01/04 08:34:31;;;;;;;49.60;19.60;;;;;;;7.21;89.76;98857.64;108287;1277;60303;-77
2022/01/04 08:37:04;;;;;;;46.10;17.60;;;;;;;7.22;89.73;98848.16;108377;1276;74510;-78
2022/01/04 08:39:30;;;;;;;44.40;17.70;;;;;;;7.24;89.74;98842.04;108343;1277;72390;-77
2022/01/04 08:42:01;;;;;;;65.90;26.40;;;;;;;7.25;89.62;98832.18;108290;1277;72792;-77
2022/01/04 08:44:33;;;;;;;43.60;20.80;;;;;;;7.25;89.24;98826.27;108328;1276;62317;-76
2022/01/04 08:46:59;;;;;;;53.80;22.00;;;;;;;7.26;89.13;98830.01;108301;1277;59599;-78
2022/01/04 08:49:26;;;;;;;67.50;29.60;;;;;;;7.26;88.72;98826.95;108317;1277;74449;-77
2022/01/04 08:51:53;;;;;;;76.80;30.50;;;;;;;7.27;88.93;98826.71;108341;1275;57721;-77
2022/01/04 08:54:20;;;;;;;50.80;18.50;;;;;;;7.27;88.91;98825.82;108370;1276;72971;-78
2022/01/04 08:56:47;;;;;;;60.10;21.70;;;;;;;7.26;88.90;98826.47;108393;1276;63289;-76
2022/01/04 08:59:14;;;;;;;85.60;35.00;;;;;;;7.25;88.76;98829.02;108382;1277;57365;-76
2022/01/04 09:01:41;;;;;;;44.30;18.10;;;;;;;7.25;88.98;98824.27;108323;1277;74574;-76
2022/01/04 09:04:28;;;;;;;62.90;25.80;;;;;;;7.26;88.92;98812.35;108297;1277;71464;-77
2022/01/04 09:06:58;;;;;;;46.00;17.40;;;;;;;7.27;88.98;98801.02;108280;1277;72729;-77
2022/01/04 09:09:25;;;;;;;71.30;28.40;;;;;;;7.26;88.98;98793.96;108298;1277;63704;-77
2022/01/04 09:12:13;;;;;;;43.90;17.00;;;;;;;7.26;88.99;98790.88;108370;1277;62172;-77
2022/01/04 09:14:44;;;;;;;51.60;21.20;;;;;;;7.27;88.78;98788.90;108306;1277;73253;-76
2022/01/04 09:19:55;;;;;;;45.40;18.80;;;;;;;7.30;89.13;98787.28;108233;1277;74019;-76
2022/01/04 09:22:22;;;;;;;59.90;19.70;;;;;;;7.29;88.85;98789.13;108389;1277;62694;-76
2022/01/04 09:24:51;;;;;;;47.70;17.40;;;;;;;7.29;88.80;98792.63;108398;1277;61637;-77
2022/01/04 09:27:18;;;;;;;45.80;18.90;;;;;;;7.29;88.73;98793.16;108234;1277;74180;-77
2022/01/04 09:29:45;;;;;;;46.00;16.30;;;;;;;7.30;88.55;98791.66;108384;1277;71455;-77
2022/01/04 09:32:16;;;;;;;36.60;14.80;;;;;;;7.32;88.65;98799.28;108225;1277;73944;-77
2022/01/04 09:34:46;;;;;;;50.90;19.10;;;;;;;7.34;88.44;98812.20;108394;1277;62649;-76
2022/01/04 09:37:14;;;;;;;67.30;26.40;;;;;;;7.35;88.27;98821.50;108400;1276;61769;-76
2022/01/04 09:39:41;;;;;;;140.50;56.70;;;;;;;7.36;88.10;98820.77;108388;1276;73481;-77
2022/01/04 09:42:10;;;;;;;40.90;17.60;;;;;;;7.38;87.96;98812.08;108340;1277;72715;-76
2022/01/04 09:44:37;;;;;;;67.40;28.70;;;;;;;7.40;87.98;98805.30;108340;1277;74366;-77
2022/01/04 09:47:04;;;;;;;55.80;21.50;;;;;;;7.41;88.21;98808.15;108309;1277;62186;-76
2022/01/04 09:49:31;;;;;;;58.70;21.60;;;;;;;7.44;87.97;98797.89;108306;1277;60866;-76
2022/01/04 09:51:58;;;;;;;64.50;26.50;;;;;;;7.47;87.88;98790.77;108397;1277;73323;-77
2022/01/04 09:54:26;;;;;;;57.00;24.30;;;;;;;7.50;87.71;98794.48;108377;1277;71386;-77
2022/01/04 09:56:54;;;;;;;54.80;22.40;;;;;;;7.50;87.67;98796.43;108312;1277;73959;-77
2022/01/04 09:59:24;;;;;;;53.10;16.20;;;;;;;7.51;87.67;98799.80;108426;1277;62182;-78
2022/01/04 10:01:59;;;;;;;40.30;16.10;;;;;;;7.49;87.60;98786.81;108485;1276;60391;-77
2022/01/04 10:04:26;;;;;;;46.50;15.50;;;;;;;7.50;87.49;98788.30;108440;1276;73459;-77
2022/01/04 10:07:04;;;;;;;41.60;17.90;;;;;;;7.51;87.49;98793.64;108444;1276;72588;-77
2022/01/04 10:09:45;;;;;;;49.80;17.70;;;;;;;7.50;87.31;98797.81;108375;1277;74249;-77
2022/01/04 10:12:17;;;;;;;64.00;27.90;;;;;;;7.50;87.62;98798.51;108421;1276;62398;-76
2022/01/04 10:14:48;;;;;;;42.10;16.90;;;;;;;7.51;87.30;98797.00;108485;1276;60597;-77
2022/01/04 10:17:23;;;;;;;65.80;24.10;;;;;;;7.52;87.08;98803.73;108402;1276;72881;-77
2022/01/04 10:19:56;;;;;;;35.80;17.10;;;;;;;7.53;87.53;98807.33;108409;1276;72531;-77
2022/01/04 10:22:39;;;;;;;51.40;20.00;;;;;;;7.55;87.43;98798.39;108436;1276;72930;-77
2022/01/04 10:25:05;;;;;;;53.50;21.00;;;;;;;7.57;87.00;98795.55;108291;1277;63542;-78
2022/01/04 10:27:49;;;;;;;81.40;33.50;;;;;;;7.56;87.15;98797.00;108447;1275;60604;-77
2022/01/04 10:30:28;;;;;;;70.90;29.40;;;;;;;7.56;86.87;98787.91;108445;1276;74377;-77
2022/01/04 10:33:11;;;;;;;59.40;23.70;;;;;;;7.54;86.56;98776.66;108362;1277;72730;-78
2022/01/04 10:35:39;;;;;;;75.40;28.40;;;;;;;7.53;87.12;98769.89;108485;1276;72776;-78
2022/01/04 10:38:23;;;;;;;74.00;27.00;;;;;;;7.54;87.22;98765.58;108333;1275;62238;-77
2022/01/04 10:41:09;;;;;;;68.40;29.40;;;;;;;7.55;87.00;98756.16;108327;1277;61610;-77
2022/01/04 10:43:46;;;;;;;48.00;18.20;;;;;;;7.55;87.17;98766.04;108484;1277;73466;-78
2022/01/04 10:46:17;;;;;;;59.00;20.30;;;;;;;7.55;87.64;98778.86;108490;1276;72657;-78
2022/01/04 10:48:49;;;;;;;57.30;22.20;;;;;;;7.53;87.79;98762.42;108367;1277;74371;-78
2022/01/04 10:51:18;;;;;;;56.60;22.00;;;;;;;7.55;87.53;98764.29;108487;1275;62163;-77
2022/01/04 10:53:46;;;;;;;53.70;20.30;;;;;;;7.57;87.81;98752.40;108410;1277;60694;-78
2022/01/04 10:56:15;;;;;;;56.90;23.30;;;;;;;7.61;87.58;98746.63;108488;1276;73327;-78
2022/01/04 10:58:49;;;;;;;51.30;18.00;;;;;;;7.64;87.28;98752.48;108479;1276;70301;-79
2022/01/04 11:01:20;;;;;;;58.80;24.40;;;;;;;7.68;87.31;98744.89;108440;1277;73103;-77
2022/01/04 11:03:53;;;;;;;69.60;27.70;;;;;;;7.72;87.25;98734.28;108305;1276;62348;-77
2022/01/04 11:06:41;;;;;;;45.20;18.10;;;;;;;7.76;86.71;98738.04;108494;1274;61681;-79
2022/01/04 11:09:09;;;;;;;53.90;20.60;;;;;;;7.80;87.26;98731.35;108574;1265;73503;-76
2022/01/04 11:11:36;;;;;;;42.30;20.70;;;;;;;7.83;86.71;98726.71;108538;1274;72392;-76
2022/01/04 11:14:03;;;;;;;45.10;17.20;;;;;;;7.87;87.04;98724.69;108523;1274;73304;-76
2022/01/04 11:16:31;;;;;;;44.80;20.20;;;;;;;7.85;85.99;98722.65;108429;1277;62176;-75
2022/01/04 11:18:59;;;;;;;50.50;19.40;;;;;;;7.84;86.08;98710.31;108564;1274;59233;-76
2022/01/04 11:21:31;;;;;;;43.70;18.40;;;;;;;7.81;85.51;98702.06;108339;1276;74200;-76
2022/01/04 11:23:59;;;;;;;47.60;15.90;;;;;;;7.77;86.02;98708.94;108541;1274;71409;-76
2022/01/04 11:26:26;;;;;;;35.60;19.50;;;;;;;7.72;86.27;98711.80;108479;1271;72914;-76
2022/01/04 11:28:55;;;;;;;42.30;20.50;;;;;;;7.71;86.22;98722.07;108502;1273;62272;-76
2022/01/04 11:31:58;;;;;;;38.90;18.30;;;;;;;7.70;86.36;98715.77;108502;1274;59691;-76
2022/01/04 11:34:55;;;;;;;48.20;20.20;;;;;;;7.70;86.12;98713.91;108459;1277;74226;-76
2022/01/04 11:37:23;;;;;;;46.60;19.20;;;;;;;7.72;86.20;98709.23;108221;1276;70283;-75
2022/01/04 11:39:52;;;;;;;49.40;19.50;;;;;;;7.73;86.48;98700.73;108287;1276;74374;-76
2022/01/04 11:42:30;;;;;;;46.10;20.60;;;;;;;7.74;86.38;98701.91;108333;1277;64409;-76
2022/01/04 11:45:02;;;;;;;54.30;19.90;;;;;;;7.74;86.34;98695.89;108483;1277;60386;-76
2022/01/04 11:47:30;;;;;;;47.20;19.50;;;;;;;7.75;86.09;98690.30;108275;1276;74113;-76
2022/01/04 11:50:21;;;;;;;38.30;16.60;;;;;;;7.78;86.00;98690.98;108450;1276;71137;-76
2022/01/04 11:52:49;;;;;;;38.80;17.20;;;;;;;7.80;85.94;98688.17;108098;1277;72800;-76
2022/01/04 11:55:34;;;;;;;47.30;16.70;;;;;;;7.80;85.64;98692.52;108456;1274;61210;-76
2022/01/04 11:58:04;;;;;;;48.50;21.00;;;;;;;7.81;85.87;98690.98;108508;1276;61078;-76
2022/01/04 12:00:34;;;;;;;35.00;16.00;;;;;;;7.82;85.60;98686.31;108330;1277;74378;-76
2022/01/04 12:03:05;;;;;;;40.70;17.40;;;;;;;7.83;85.12;98686.68;108337;1277;72537;-77
2022/01/04 12:05:32;;;;;;;31.10;15.40;;;;;;;7.85;84.89;98673.67;108151;1277;72864;-77
2022/01/04 12:08:00;;;;;;;39.50;18.40;;;;;;;7.85;85.08;98675.19;108344;1276;62261;-77
2022/01/04 12:10:27;;;;;;;42.30;17.70;;;;;;;7.86;85.17;98667.83;108311;1276;61797;-78
2022/01/04 12:13:03;;;;;;;38.70;16.00;;;;;;;7.87;84.81;98671.28;108441;1276;58676;-76
2022/01/04 12:15:33;;;;;;;38.90;19.20;;;;;;;7.92;85.17;98664.72;108465;1275;71515;-77
2022/01/04 12:18:01;;;;;;;41.60;18.80;;;;;;;7.92;84.34;98659.03;108520;1274;73508;-76
2022/01/04 12:20:42;;;;;;;36.90;15.40;;;;;;;7.94;84.47;98658.63;108561;1274;62470;-77
2022/01/04 12:23:35;;;;;;;50.00;19.80;;;;;;;7.93;84.44;98656.92;108522;1274;60607;-77
2022/01/04 12:26:11;;;;;;;33.10;17.80;;;;;;;7.94;84.47;98664.60;108556;1273;74239;-77
2022/01/04 12:28:42;;;;;;;39.40;16.70;;;;;;;7.93;84.46;98656.23;108497;1274;71733;-76
2022/01/04 12:31:18;;;;;;;46.70;16.40;;;;;;;7.96;84.32;98661.70;108555;1274;73020;-77
2022/01/04 12:33:48;;;;;;;35.40;14.00;;;;;;;7.98;84.27;98659.77;108511;1274;63173;-76
2022/01/04 12:36:36;;;;;;;29.10;15.70;;;;;;;7.99;84.42;98660.67;108552;1274;60267;-75
2022/01/04 12:39:06;;;;;;;33.70;15.50;;;;;;;8.00;84.67;98658.89;108555;1273;75121;-76
2022/01/04 12:41:35;;;;;;;40.00;17.20;;;;;;;7.98;85.00;98650.00;108597;1273;71620;-76
2022/01/04 12:44:10;;;;;;;33.90;16.10;;;;;;;7.94;85.16;98654.02;108562;1273;72999;-75
2022/01/04 12:46:40;;;;;;;34.20;16.50;;;;;;;7.86;84.82;98662.61;108598;1273;62427;-75
2022/01/04 12:49:11;;;;;;;31.60;14.80;;;;;;;7.81;84.85;98653.50;108469;1274;60771;-75
2022/01/04 12:51:44;;;;;;;48.70;13.70;;;;;;;7.82;84.93;98650.38;108418;1274;74280;-76
2022/01/04 12:54:12;;;;;;;35.50;17.20;;;;;;;7.84;84.56;98651.02;108510;1274;70275;-77
2022/01/04 12:56:45;;;;;;;34.60;16.30;;;;;;;7.87;84.13;98647.23;108427;1274;74137;-77
2022/01/04 12:59:27;;;;;;;28.00;15.30;;;;;;;7.88;84.19;98639.71;108493;1274;62080;-77
2022/01/04 13:01:58;;;;;;;32.10;15.40;;;;;;;7.89;84.22;98646.58;108526;1274;60573;-77
2022/01/04 13:04:27;;;;;;;31.80;14.80;;;;;;;7.88;84.45;98645.80;108620;1273;75384;-77
2022/01/04 13:06:55;;;;;;;35.20;16.10;;;;;;;7.88;84.50;98634.59;108445;1274;71328;-76
2022/01/04 13:09:24;;;;;;;35.40;14.10;;;;;;;7.87;84.74;98635.58;108416;1274;73892;-77
2022/01/04 13:11:57;;;;;;;36.10;15.70;;;;;;;7.84;84.88;98644.00;108411;1274;62226;-76
2022/01/04 13:14:26;;;;;;;32.00;14.90;;;;;;;7.80;84.98;98650.30;108533;1274;59255;-77
2022/01/04 13:17:12;;;;;;;29.70;15.10;;;;;;;7.76;85.06;98663.09;108577;1274;75527;-77
2022/01/04 13:19:43;;;;;;;30.70;14.60;;;;;;;7.73;85.27;98664.45;108494;1274;71480;-78
2022/01/04 13:22:19;;;;;;;28.80;16.30;;;;;;;7.70;85.49;98658.60;108547;1273;74000;-77
2022/01/04 13:24:52;;;;;;;27.30;15.30;;;;;;;7.68;85.57;98656.58;108459;1274;59380;-78
2022/01/04 13:27:27;;;;;;;29.30;14.50;;;;;;;7.67;85.05;98656.54;108526;1274;61638;-77
2022/01/04 13:30:08;;;;;;;30.10;15.00;;;;;;;7.67;85.18;98654.92;108559;1273;74136;-77
2022/01/04 13:32:49;;;;;;;28.40;14.10;;;;;;;7.68;85.26;98652.92;108548;1274;72886;-75
2022/01/04 13:35:19;;;;;;;32.80;15.70;;;;;;;7.69;85.35;98648.61;108538;1274;73379;-76
2022/01/04 13:37:49;;;;;;;29.50;15.50;;;;;;;7.70;84.91;98657.39;108543;1273;62399;-76
2022/01/04 13:40:17;;;;;;;35.90;17.30;;;;;;;7.70;84.73;98648.36;108452;1274;59595;-75
2022/01/04 13:42:49;;;;;;;28.00;15.30;;;;;;;7.72;84.92;98647.32;108522;1273;74201;-75
2022/01/04 13:45:21;;;;;;;32.40;15.10;;;;;;;7.72;84.52;98645.69;108585;1273;73774;-76
2022/01/04 13:48:00;;;;;;;27.30;14.20;;;;;;;7.75;84.73;98647.90;108582;1274;71814;-76
2022/01/04 13:50:37;;;;;;;26.20;14.10;;;;;;;7.76;84.34;98653.02;108477;1273;63313;-76
2022/01/04 13:53:09;;;;;;;21.70;12.40;;;;;;;7.78;84.17;98653.59;108563;1274;61543;-76
2022/01/04 13:55:58;;;;;;;21.90;13.40;;;;;;;7.76;84.56;98648.59;108562;1274;74327;-77
2022/01/04 13:58:37;;;;;;;25.60;14.70;;;;;;;7.78;84.33;98645.27;108528;1274;70067;-76